Time;durP1;ratioP1;P1;durP2;ratioP2;P2;SDS_P1;SDS_P2;PMS_P1;PMS_P2;Temp;Humidity;BMP_temperature;BMP_pressure;BME280_temperature;BME280_humidity;BME280_pressure;Samples;Min_cycle;Max_cycle;Signal;HPM_P1;HPM_P2
2021/04/04 00:01:05;;;;;;;15.33;6.63;;;;;;;-0.82;79.99;100339.23;233669;1174;115376;-64
2021/04/04 00:06:09;;;;;;;13.10;5.63;;;;;;;-0.90;79.73;100342.58;232653;1174;116032;-63
2021/04/04 00:11:11;;;;;;;18.30;5.63;;;;;;;-0.95;81.05;100350.06;232633;1174;115478;-64
2021/04/04 00:16:15;;;;;;;12.20;7.10;;;;;;;-0.94;80.68;100351.72;234087;1174;116209;-64
2021/04/04 00:21:19;;;;;;;11.95;6.18;;;;;;;-0.99;80.66;100346.09;235228;1174;115035;-64
2021/04/04 00:26:22;;;;;;;10.43;6.85;;;;;;;-1.05;81.65;100351.90;235051;1174;115314;-64
2021/04/04 00:31:26;;;;;;;14.60;5.80;;;;;;;-1.07;80.67;100349.42;235015;1174;114751;-64
2021/04/04 00:36:30;;;;;;;10.15;6.28;;;;;;;-1.15;80.41;100356.34;234403;1173;115825;-64
2021/04/04 00:41:34;;;;;;;12.60;5.93;;;;;;;-1.23;80.90;100351.84;232725;1174;115600;-63
2021/04/04 00:46:39;;;;;;;10.20;6.15;;;;;;;-1.30;80.82;100358.61;234111;1174;115288;-64
2021/04/04 00:51:43;;;;;;;16.00;7.70;;;;;;;-1.37;81.54;100363.59;232678;1175;114920;-64
2021/04/04 00:56:47;;;;;;;9.45;5.60;;;;;;;-1.42;81.41;100376.26;232438;1175;114839;-64
2021/04/04 01:01:51;;;;;;;15.20;6.85;;;;;;;-1.44;81.72;100377.36;233572;1174;115645;-64
2021/04/04 01:06:56;;;;;;;15.30;6.53;;;;;;;-1.50;81.61;100378.75;233656;1174;115093;-64
2021/04/04 01:12:20;;;;;;;14.05;7.88;;;;;;;-1.54;81.97;100384.42;232758;1173;114939;-64
2021/04/04 01:17:24;;;;;;;13.87;5.97;;;;;;;-1.56;82.17;100370.67;233300;1174;116269;-64
2021/04/04 01:23:11;;;;;;;13.93;4.87;;;;;;;-1.60;82.22;100374.53;232778;1174;115915;-63
2021/04/04 01:28:21;;;;;;;14.90;7.80;;;;;;;-1.67;82.34;100370.82;232609;1174;115089;-64
2021/04/04 01:33:30;;;;;;;20.45;7.28;;;;;;;-1.71;81.99;100367.66;233427;1174;116714;-63
2021/04/04 01:38:37;;;;;;;14.15;7.35;;;;;;;-1.74;82.29;100373.98;232536;1174;115568;-64
2021/04/04 01:43:45;;;;;;;18.55;8.18;;;;;;;-1.75;83.22;100374.95;233123;1174;115821;-64
2021/04/04 01:48:49;;;;;;;14.03;5.95;;;;;;;-1.79;83.04;100367.53;233045;1174;115373;-65
2021/04/04 01:53:55;;;;;;;13.40;6.80;;;;;;;-1.82;82.05;100367.80;232886;1174;115723;-63
2021/04/04 01:59:01;;;;;;;14.83;8.80;;;;;;;-1.82;82.56;100370.42;232756;1177;116388;-64
2021/04/04 02:04:08;;;;;;;14.33;6.75;;;;;;;-1.84;82.87;100375.81;233737;1174;115318;-62
2021/04/04 02:09:16;;;;;;;21.00;7.58;;;;;;;-1.83;82.08;100382.66;233008;1174;115658;-62
2021/04/04 02:14:24;;;;;;;16.33;6.70;;;;;;;-1.83;81.45;100380.05;232734;1173;115916;-62
2021/04/04 02:19:29;;;;;;;13.57;6.83;;;;;;;-1.89;83.24;100379.80;234894;1173;119162;-64
2021/04/04 02:24:34;;;;;;;16.93;7.07;;;;;;;-1.91;82.42;100379.11;234920;1167;115477;-65
2021/04/04 02:29:37;;;;;;;22.10;8.75;;;;;;;-1.93;82.13;100371.41;234871;1174;114952;-64
2021/04/04 02:34:42;;;;;;;14.90;5.80;;;;;;;-1.96;82.02;100370.86;235029;1174;115015;-65
2021/04/04 02:39:51;;;;;;;11.30;6.50;;;;;;;-1.97;82.54;100377.05;234770;1173;115489;-64
2021/04/04 02:44:57;;;;;;;9.80;6.47;;;;;;;-2.00;81.52;100374.71;233953;1174;115003;-62
2021/04/04 02:50:01;;;;;;;;;;;;;;;-2.04;82.63;100374.16;234752;1174;114847;-63
2021/04/04 02:55:08;;;;;;;10.23;6.13;;;;;;;-2.02;82.03;100376.63;234531;1174;103318;-62
2021/04/04 03:00:17;;;;;;;9.10;5.53;;;;;;;-1.96;81.81;100376.09;233394;1174;115620;-62
2021/04/04 03:05:26;;;;;;;11.17;6.73;;;;;;;-2.04;81.29;100369.76;233400;1174;115731;-62
2021/04/04 03:10:32;;;;;;;13.45;6.75;;;;;;;-2.11;81.84;100375.66;232748;1173;116548;-62
2021/04/04 03:15:38;;;;;;;14.78;8.73;;;;;;;-2.17;81.89;100379.67;233278;1174;115526;-62
2021/04/04 03:20:42;;;;;;;10.70;6.33;;;;;;;-2.17;82.06;100371.02;232960;1174;116540;-62
2021/04/04 03:25:46;;;;;;;10.00;6.20;;;;;;;-2.21;84.07;100373.08;232940;1174;115490;-62
2021/04/04 03:30:52;;;;;;;13.38;8.18;;;;;;;-2.27;83.76;100383.23;233139;1174;115404;-63
2021/04/04 03:35:57;;;;;;;11.00;6.20;;;;;;;-2.23;84.92;100379.39;233241;1174;115572;-62
2021/04/04 03:41:02;;;;;;;13.85;6.50;;;;;;;-2.21;82.23;100378.30;233146;1174;116692;-62
2021/04/04 03:46:09;;;;;;;11.20;6.45;;;;;;;-2.16;83.91;100375.28;233105;1174;116659;-62
2021/04/04 03:51:15;;;;;;;18.20;7.90;;;;;;;-2.16;83.68;100380.50;232704;1174;115310;-62
2021/04/04 03:56:24;;;;;;;12.90;5.70;;;;;;;-2.19;83.13;100380.77;233710;1173;196646;-62
2021/04/04 04:01:30;;;;;;;11.40;6.40;;;;;;;-2.22;83.07;100381.87;233469;1174;115992;-62
2021/04/04 04:06:34;;;;;;;13.38;7.48;;;;;;;-2.22;82.82;100379.26;233555;1174;115416;-62
2021/04/04 04:11:42;;;;;;;15.93;7.47;;;;;;;-2.20;83.20;100379.95;233717;1174;115885;-62
2021/04/04 04:16:48;;;;;;;12.10;6.67;;;;;;;-2.22;82.94;100375.82;235191;1174;115366;-64
2021/04/04 04:21:51;;;;;;;13.27;7.07;;;;;;;-2.19;82.85;100376.38;233848;1173;116183;-62
2021/04/04 04:26:54;;;;;;;17.35;6.28;;;;;;;-2.10;82.01;100372.92;234190;1174;115103;-63
2021/04/04 04:31:59;;;;;;;10.90;6.85;;;;;;;-2.09;83.21;100378.97;235098;1174;114932;-64
2021/04/04 04:37:03;;;;;;;14.30;6.70;;;;;;;-2.08;82.75;100375.39;235119;1174;115110;-64
2021/04/04 04:42:11;;;;;;;10.53;6.30;;;;;;;-2.05;82.54;100372.51;234296;1174;115228;-65
2021/04/04 04:47:16;;;;;;;13.17;7.47;;;;;;;-1.95;82.28;100383.78;234132;1174;115196;-64
2021/04/04 04:52:23;;;;;;;10.40;5.60;;;;;;;-1.96;82.09;100382.14;232881;1174;115211;-62
2021/04/04 04:57:28;;;;;;;12.57;7.20;;;;;;;-1.93;82.62;100387.09;233832;1174;115455;-63
2021/04/04 05:02:32;;;;;;;14.53;6.43;;;;;;;-1.84;83.63;100393.28;234049;1174;114824;-62
2021/04/04 05:07:38;;;;;;;14.50;7.50;;;;;;;-1.72;83.01;100395.59;233782;1174;117962;-61
2021/04/04 05:12:59;;;;;;;13.35;8.10;;;;;;;-1.57;82.69;100393.38;233561;1174;115492;-62
2021/04/04 05:18:05;;;;;;;37.07;12.83;;;;;;;-1.37;83.73;100392.35;232649;1174;115671;-62
2021/04/04 05:23:08;;;;;;;23.65;9.50;;;;;;;-1.25;82.88;100402.66;232664;1174;116562;-61
2021/04/04 05:28:11;;;;;;;13.87;6.27;;;;;;;-1.13;82.99;100391.03;232852;1174;116303;-63
2021/04/04 05:33:15;;;;;;;16.13;7.80;;;;;;;-1.02;82.56;100391.69;233015;1174;115550;-62
2021/04/04 05:38:19;;;;;;;14.63;6.77;;;;;;;-0.83;83.13;100387.31;232539;1174;115653;-62
2021/04/04 05:43:30;;;;;;;19.20;8.50;;;;;;;-0.67;82.16;100387.52;232564;1174;115342;-63
2021/04/04 05:48:54;;;;;;;16.75;8.33;;;;;;;-0.51;81.91;100374.59;233516;1174;115788;-62
2021/04/04 05:54:17;;;;;;;21.83;8.80;;;;;;;-0.33;81.10;100384.28;232912;1175;116641;-64
2021/04/04 05:59:55;;;;;;;19.95;10.50;;;;;;;-0.18;79.65;100388.02;233575;1174;116040;-66
2021/04/04 06:05:03;;;;;;;14.03;7.45;;;;;;;-0.05;80.11;100393.72;233881;1174;115674;-67
2021/04/04 06:10:13;;;;;;;17.03;8.50;;;;;;;0.18;79.43;100400.13;233491;1176;115633;-67
2021/04/04 06:15:25;;;;;;;19.15;7.25;;;;;;;0.36;77.77;100402.72;232924;1174;116165;-67
2021/04/04 06:21:01;;;;;;;10.53;5.57;;;;;;;0.50;78.64;100398.73;234125;1170;114769;-64
2021/04/04 06:26:36;;;;;;;19.30;9.23;;;;;;;0.75;77.79;100402.33;234470;1174;114915;-66
2021/04/04 06:31:45;;;;;;;12.30;6.18;;;;;;;0.90;76.35;100396.36;234753;1174;114732;-64
2021/04/04 06:36:57;;;;;;;12.35;6.65;;;;;;;1.05;75.18;100390.52;235062;1175;114781;-68
2021/04/04 06:42:09;;;;;;;17.47;7.33;;;;;;;1.20;75.73;100397.66;234978;1174;114838;-66
2021/04/04 06:47:27;;;;;;;7.50;4.65;;;;;;;1.45;73.47;100400.36;234942;1174;115011;-66
2021/04/04 06:52:51;;;;;;;5.00;3.00;;;;;;;1.72;72.33;100407.16;232435;1174;115924;-66
2021/04/04 06:58:17;;;;;;;13.53;7.08;;;;;;;1.95;71.18;100408.17;235034;1174;115409;-65
2021/04/04 07:03:26;;;;;;;12.07;6.80;;;;;;;2.28;70.69;100404.58;233758;1174;115399;-67
2021/04/04 07:08:49;;;;;;;12.70;6.93;;;;;;;2.55;70.69;100413.11;233477;1174;115789;-66
2021/04/04 07:14:25;;;;;;;7.08;3.65;;;;;;;2.80;62.56;100403.36;232870;1174;117913;-66
2021/04/04 07:19:47;;;;;;;4.45;2.75;;;;;;;3.23;63.37;100408.17;232477;1174;115545;-68
2021/04/04 07:24:56;;;;;;;4.10;2.20;;;;;;;5.19;58.07;100410.11;233813;1174;115373;-66
2021/04/04 07:30:29;;;;;;;2.60;1.70;;;;;;;6.33;52.48;100414.65;233277;1174;115821;-66
2021/04/04 07:35:46;;;;;;;3.80;1.35;;;;;;;6.48;50.84;100411.91;233377;1174;116329;-70
2021/04/04 07:41:10;;;;;;;3.57;2.37;;;;;;;6.16;50.25;100415.90;232511;1174;118575;-68
2021/04/04 07:46:23;;;;;;;2.63;1.10;;;;;;;6.23;49.62;100417.61;232722;1174;115549;-67
2021/04/04 07:51:32;;;;;;;0.90;0.80;;;;;;;6.16;45.35;100400.84;232645;1174;115984;-68
2021/04/04 07:57:07;;;;;;;1.25;0.90;;;;;;;5.93;45.88;100402.86;232635;1174;117049;-67
2021/04/04 08:02:20;;;;;;;0.80;0.65;;;;;;;5.79;47.61;100403.71;234011;1176;116033;-67
2021/04/04 08:07:53;;;;;;;2.73;1.20;;;;;;;5.54;49.38;100401.38;232589;1174;116843;-67
2021/04/04 08:13:22;;;;;;;0.65;0.65;;;;;;;5.46;47.30;100409.44;232633;1175;116329;-67
2021/04/04 08:18:25;;;;;;;0.50;0.50;;;;;;;5.52;45.88;100410.50;233893;1174;115648;-67
2021/04/04 08:24:02;;;;;;;3.80;0.80;;;;;;;5.50;49.04;100400.14;234504;1174;115017;-66
2021/04/04 08:29:09;;;;;;;3.60;1.40;;;;;;;5.84;50.54;100409.23;235150;1174;115892;-68
2021/04/04 08:34:19;;;;;;;1.33;0.70;;;;;;;6.07;45.30;100400.17;234047;1175;115577;-69
2021/04/04 08:39:25;;;;;;;1.13;0.63;;;;;;;6.43;46.92;100401.88;234999;1169;114742;-70
2021/04/04 08:44:40;;;;;;;2.38;1.03;;;;;;;6.54;49.16;100404.02;235241;1174;115430;-69
2021/04/04 08:49:43;;;;;;;2.20;1.20;;;;;;;6.76;46.97;100391.53;233313;1174;115443;-69
2021/04/04 08:54:52;;;;;;;1.07;0.40;;;;;;;6.91;45.05;100397.55;233904;1174;115140;-70
2021/04/04 08:59:59;;;;;;;1.20;1.10;;;;;;;7.19;45.26;100394.03;232635;1174;115707;-70
2021/04/04 09:05:06;;;;;;;0.65;0.50;;;;;;;7.58;41.94;100383.59;232665;1174;117059;-70
2021/04/04 09:10:15;;;;;;;1.15;1.05;;;;;;;7.86;43.49;100387.95;233719;1174;115283;-69
2021/04/04 09:15:20;;;;;;;1.80;0.90;;;;;;;7.79;41.41;100385.27;233772;1174;115526;-69
2021/04/04 09:20:32;;;;;;;0.85;0.55;;;;;;;7.69;41.27;100383.00;233218;1174;115524;-69
2021/04/04 09:25:48;;;;;;;0.83;0.70;;;;;;;7.88;43.47;100375.30;233520;1175;116259;-67
2021/04/04 09:30:53;;;;;;;0.83;0.80;;;;;;;7.56;41.97;100366.23;232821;1174;117120;-67
2021/04/04 09:35:59;;;;;;;3.93;0.90;;;;;;;7.80;41.54;100362.20;233024;1174;116918;-68
2021/04/04 09:41:07;;;;;;;5.20;1.80;;;;;;;8.16;40.66;100359.20;232655;1174;115643;-68
2021/04/04 09:46:10;;;;;;;1.07;0.90;;;;;;;8.08;39.54;100352.23;232508;1174;115231;-68
2021/04/04 09:51:16;;;;;;;1.45;1.08;;;;;;;8.37;41.58;100341.23;232762;1174;116434;-68
2021/04/04 09:56:31;;;;;;;1.80;0.57;;;;;;;8.22;38.24;100337.95;232541;1174;115836;-67
2021/04/04 10:01:44;;;;;;;2.88;1.18;;;;;;;8.23;38.67;100342.25;232917;1174;116251;-68
2021/04/04 10:07:02;;;;;;;1.65;0.90;;;;;;;8.78;40.83;100333.00;233303;1174;207730;-67
2021/04/04 10:12:06;;;;;;;;;;;;;;;9.51;37.70;100322.05;232536;1174;115496;-67
2021/04/04 10:17:14;;;;;;;2.70;1.43;;;;;;;9.43;40.54;100328.47;234963;1174;105392;-68
2021/04/04 10:22:18;;;;;;;2.98;1.80;;;;;;;9.35;37.86;100319.91;233039;1174;115704;-71
2021/04/04 10:27:28;;;;;;;0.55;0.38;;;;;;;9.69;38.39;100310.70;232652;1174;115674;-68
2021/04/04 10:32:32;;;;;;;2.60;1.58;;;;;;;9.68;38.52;100304.56;235111;1174;115854;-70
2021/04/04 10:37:37;;;;;;;3.83;2.45;;;;;;;9.52;36.12;100306.91;233263;1174;116100;-72
2021/04/04 10:42:41;;;;;;;1.37;1.23;;;;;;;9.25;36.38;100307.05;234442;1174;118091;-69
2021/04/04 10:47:45;;;;;;;3.00;1.38;;;;;;;9.03;37.85;100298.56;234514;1174;114566;-69
2021/04/04 10:52:49;;;;;;;1.55;1.45;;;;;;;8.86;37.76;100297.41;235017;1174;114833;-70
2021/04/04 10:57:54;;;;;;;3.00;1.73;;;;;;;9.26;38.97;100275.94;233626;1170;116374;-68
2021/04/04 11:03:00;;;;;;;2.35;1.20;;;;;;;9.87;39.40;100278.00;233055;1174;115136;-68
2021/04/04 11:08:08;;;;;;;2.20;1.33;;;;;;;10.46;38.43;100272.98;232912;1174;115408;-70
2021/04/04 11:13:16;;;;;;;1.87;1.50;;;;;;;10.75;36.33;100270.63;232485;1174;116453;-69
2021/04/04 11:18:27;;;;;;;2.23;1.23;;;;;;;10.74;35.84;100258.33;233604;1174;115994;-69
2021/04/04 11:23:32;;;;;;;3.05;1.63;;;;;;;10.85;37.26;100257.59;232783;1174;117018;-69
2021/04/04 11:28:36;;;;;;;14.40;1.13;;;;;;;10.27;35.07;100252.69;233434;1176;116520;-69
2021/04/04 11:33:41;;;;;;;5.37;1.33;;;;;;;10.02;34.94;100254.53;233321;1174;116950;-69
2021/04/04 11:38:50;;;;;;;5.15;1.75;;;;;;;9.42;35.92;100248.84;232626;1174;116157;-69
2021/04/04 11:44:18;;;;;;;1.40;1.30;;;;;;;9.54;35.63;100236.47;233850;1175;116471;-67
2021/04/04 11:49:30;;;;;;;4.33;1.43;;;;;;;9.77;35.58;100231.39;232667;1174;115862;-68
2021/04/04 11:54:46;;;;;;;1.03;1.00;;;;;;;9.99;37.27;100228.34;232664;1176;116224;-67
2021/04/04 12:00:03;;;;;;;3.58;1.28;;;;;;;9.79;38.40;100226.64;233034;1174;115883;-66
2021/04/04 12:05:11;;;;;;;1.77;1.67;;;;;;;9.85;38.98;100216.16;233069;1174;115629;-68
2021/04/04 12:10:18;;;;;;;3.58;1.58;;;;;;;9.58;38.35;100205.73;232992;1174;115699;-66
2021/04/04 12:15:25;;;;;;;3.25;1.30;;;;;;;9.32;37.46;100193.44;233918;1174;115219;-70
2021/04/04 12:20:34;;;;;;;1.50;1.25;;;;;;;9.11;36.39;100191.13;233102;1174;115640;-67
2021/04/04 12:25:44;;;;;;;4.40;2.43;;;;;;;8.99;39.19;100175.02;232625;1168;115654;-68
2021/04/04 12:30:47;;;;;;;3.03;2.67;;;;;;;9.06;38.91;100170.48;234211;1174;115404;-72
2021/04/04 12:35:53;;;;;;;3.67;1.80;;;;;;;8.90;38.86;100160.34;233201;1174;116260;-68
2021/04/04 12:40:59;;;;;;;3.13;2.33;;;;;;;8.54;41.40;100160.95;233284;1174;115995;-67
2021/04/04 12:46:09;;;;;;;7.70;3.18;;;;;;;8.43;42.05;100154.45;233847;1174;116574;-68
2021/04/04 12:51:13;;;;;;;5.35;3.50;;;;;;;8.54;42.19;100142.36;233180;1169;114598;-68
2021/04/04 12:56:35;;;;;;;1.85;1.75;;;;;;;8.67;40.81;100121.02;233965;1174;114522;-69
2021/04/04 13:01:45;;;;;;;4.30;2.83;;;;;;;8.64;40.41;100121.44;234974;1174;116493;-68
2021/04/04 13:06:50;;;;;;;5.03;2.68;;;;;;;8.65;41.90;100123.06;234172;1174;115458;-67
2021/04/04 13:11:53;;;;;;;4.83;3.98;;;;;;;8.60;40.80;100103.47;233424;1174;115089;-69
2021/04/04 13:16:59;;;;;;;5.43;2.93;;;;;;;8.66;40.17;100105.28;232545;1174;115701;-70
2021/04/04 13:22:02;;;;;;;;;;;;;;;8.85;40.01;100099.05;233331;1174;116303;-69
2021/04/04 13:27:05;;;;;;;4.90;2.55;;;;;;;8.85;40.80;100088.41;234521;1174;104276;-69
2021/04/04 13:32:08;;;;;;;3.68;3.23;;;;;;;8.74;40.40;100091.75;232844;1174;115844;-68
2021/04/04 13:37:17;;;;;;;6.18;2.50;;;;;;;8.50;42.97;100082.70;233602;1170;115230;-69
2021/04/04 13:42:28;;;;;;;7.78;4.25;;;;;;;8.47;43.32;100074.33;233437;1174;116052;-69
2021/04/04 13:47:31;;;;;;;2.30;1.90;;;;;;;8.54;41.98;100065.30;232500;1174;115583;-69
2021/04/04 13:52:35;;;;;;;2.93;2.63;;;;;;;8.87;39.82;100057.09;232489;1174;116106;-67
2021/04/04 13:57:41;;;;;;;6.70;2.70;;;;;;;8.56;40.83;100044.62;233197;1175;116416;-69
2021/04/04 14:02:44;;;;;;;6.93;3.00;;;;;;;8.63;41.46;100040.09;232640;1174;115717;-70
2021/04/04 14:07:47;;;;;;;3.93;3.20;;;;;;;8.84;41.98;100038.13;233051;1174;115557;-69
2021/04/04 14:12:52;;;;;;;5.58;4.00;;;;;;;8.69;39.85;100033.10;233261;1174;115355;-70
2021/04/04 14:17:56;;;;;;;4.10;3.30;;;;;;;8.45;40.58;100037.34;232831;1174;115260;-69
2021/04/04 14:22:59;;;;;;;8.15;4.35;;;;;;;8.37;42.70;100032.28;233283;1174;115129;-72
2021/04/04 14:28:03;;;;;;;3.83;2.83;;;;;;;8.25;44.24;100018.84;233931;1174;114720;-70
2021/04/04 14:33:06;;;;;;;2.17;2.03;;;;;;;8.30;44.49;100011.03;233782;1176;116049;-67
2021/04/04 14:38:10;;;;;;;5.25;4.20;;;;;;;8.36;42.31;100009.40;232668;1174;114692;-69
2021/04/04 14:48:32;;;;;;;2.77;2.23;;;;;;;8.22;46.95;99987.40;235026;1174;115788;-69
2021/04/04 14:53:37;;;;;;;2.90;2.70;;;;;;;8.21;43.01;99993.73;232506;1174;115509;-69
2021/04/04 14:58:42;;;;;;;2.60;2.40;;;;;;;8.06;45.17;99982.56;235011;1174;114519;-68
2021/04/04 15:03:45;;;;;;;7.18;4.23;;;;;;;8.05;44.92;99973.79;234994;1174;114936;-70
2021/04/04 15:08:47;;;;;;;1.77;1.33;;;;;;;7.88;43.61;99970.01;234922;1174;115292;-69
2021/04/04 15:13:50;;;;;;;2.75;2.55;;;;;;;7.98;43.16;99964.22;235049;1174;115084;-69
2021/04/04 15:18:53;;;;;;;4.33;3.00;;;;;;;8.14;41.72;99957.62;234523;1169;115234;-69
2021/04/04 15:23:56;;;;;;;4.50;2.45;;;;;;;7.99;44.32;99944.61;233816;1174;114512;-66
2021/04/04 15:28:59;;;;;;;5.75;2.65;;;;;;;7.90;44.13;99945.91;232670;1174;114978;-70
2021/04/04 15:34:02;;;;;;;3.75;2.88;;;;;;;7.76;44.99;99950.45;232897;1174;114368;-67
2021/04/04 15:39:05;;;;;;;4.07;3.23;;;;;;;7.78;45.72;99933.30;232360;1174;115187;-66
2021/04/04 15:44:08;;;;;;;8.67;5.67;;;;;;;7.71;47.35;99927.20;233720;1167;115057;-68
2021/04/04 15:49:11;;;;;;;6.57;3.43;;;;;;;7.61;46.24;99918.09;232944;1174;115345;-69
2021/04/04 15:54:14;;;;;;;6.50;3.78;;;;;;;7.47;47.02;99909.36;232411;1174;115601;-68
2021/04/04 15:59:19;;;;;;;5.88;3.48;;;;;;;7.20;47.20;99908.63;232628;1174;114788;-65
2021/04/04 16:04:22;;;;;;;8.47;4.10;;;;;;;7.03;46.76;99895.00;233241;1174;115037;-65
2021/04/04 16:09:28;;;;;;;1.05;1.00;;;;;;;6.74;45.18;99888.33;233196;1174;115100;-66
2021/04/04 16:14:34;;;;;;;5.33;3.00;;;;;;;6.77;49.69;99873.86;233016;1174;114715;-65
2021/04/04 16:19:38;;;;;;;4.28;3.08;;;;;;;6.65;48.91;99875.52;233054;1174;115492;-65
2021/04/04 16:24:40;;;;;;;3.77;2.60;;;;;;;6.53;47.51;99866.56;232538;1174;114804;-65
2021/04/04 16:29:44;;;;;;;4.60;3.40;;;;;;;6.47;49.44;99851.48;232803;1174;114901;-66
2021/04/04 16:34:47;;;;;;;4.40;3.35;;;;;;;6.38;52.04;99851.72;233379;1174;115054;-65
2021/04/04 16:39:51;;;;;;;3.50;2.80;;;;;;;6.25;51.48;99845.59;232658;1174;115204;-67
2021/04/04 16:44:54;;;;;;;3.53;3.20;;;;;;;6.16;51.07;99836.22;232500;1174;115148;-67
2021/04/04 16:49:57;;;;;;;4.90;3.70;;;;;;;6.01;52.30;99826.67;234626;1170;115033;-68
2021/04/04 16:55:02;;;;;;;4.70;3.20;;;;;;;5.89;51.94;99835.39;234189;1168;114658;-69
2021/04/04 17:00:10;;;;;;;5.43;3.57;;;;;;;5.78;54.24;99817.45;234883;1174;115983;-68
2021/04/04 17:05:14;;;;;;;5.93;3.93;;;;;;;5.64;53.79;99821.90;235045;1174;115007;-68
2021/04/04 17:10:19;;;;;;;6.90;3.00;;;;;;;5.47;54.72;99808.25;235078;1174;114846;-69
2021/04/04 17:15:24;;;;;;;6.50;3.50;;;;;;;5.30;56.09;99813.06;235003;1174;115127;-67
2021/04/04 17:20:27;;;;;;;6.00;3.80;;;;;;;5.15;56.23;99808.96;233212;1174;115778;-67
2021/04/04 17:25:30;;;;;;;7.03;4.30;;;;;;;4.98;57.28;99814.56;233885;1175;116590;-66
2021/04/04 17:30:33;;;;;;;19.10;9.10;;;;;;;4.82;57.37;99801.70;234174;1174;114605;-66
2021/04/04 17:35:39;;;;;;;18.88;9.65;;;;;;;4.62;59.77;99784.92;234092;1174;114695;-67
2021/04/04 17:40:41;;;;;;;14.03;8.00;;;;;;;4.44;60.81;99792.55;232374;1174;114436;-66
2021/04/04 17:45:46;;;;;;;8.33;5.25;;;;;;;4.27;60.49;99782.30;233465;1174;114853;-66
2021/04/04 17:50:49;;;;;;;9.18;5.58;;;;;;;4.10;60.39;99786.22;232727;1174;116748;-65
2021/04/04 17:55:54;;;;;;;6.50;3.83;;;;;;;3.96;61.28;99768.67;233111;1174;116014;-65
2021/04/04 18:01:01;;;;;;;5.50;3.38;;;;;;;3.84;60.96;99768.37;232574;1170;115371;-66
2021/04/04 18:11:09;;;;;;;11.40;4.50;;;;;;;3.70;61.83;99770.06;232676;1170;116475;-65
2021/04/04 18:16:18;;;;;;;8.40;4.35;;;;;;;3.64;59.46;99762.94;232996;1176;116261;-66
2021/04/04 18:21:21;;;;;;;7.85;4.50;;;;;;;3.64;60.42;99757.66;233205;1174;115762;-66
2021/04/04 18:26:25;;;;;;;12.00;7.05;;;;;;;3.60;59.72;99747.68;233347;1176;115316;-66
2021/04/04 18:31:28;;;;;;;9.80;6.43;;;;;;;3.54;61.14;99743.98;234091;1174;114909;-65
2021/04/04 18:36:31;;;;;;;9.70;6.85;;;;;;;3.48;62.26;99741.27;232841;1174;115970;-66
2021/04/04 18:41:34;;;;;;;14.18;8.95;;;;;;;3.43;61.65;99738.38;233231;1174;116403;-66
2021/04/04 18:46:37;;;;;;;15.57;9.43;;;;;;;3.37;61.29;99727.59;234389;1174;115842;-66
2021/04/04 18:51:39;;;;;;;19.03;8.63;;;;;;;3.33;60.95;99720.27;232901;1174;115929;-66
2021/04/04 18:56:43;;;;;;;20.80;9.65;;;;;;;3.26;61.45;99720.20;234198;1174;114838;-65
2021/04/04 19:01:47;;;;;;;16.60;8.13;;;;;;;3.24;61.11;99716.13;235168;1174;115902;-66
2021/04/04 19:06:50;;;;;;;15.15;9.45;;;;;;;3.23;61.61;99710.04;235096;1174;115978;-66
2021/04/04 19:11:53;;;;;;;15.75;6.68;;;;;;;3.22;62.34;99697.87;234796;1174;114455;-65
2021/04/04 19:16:56;;;;;;;13.25;7.25;;;;;;;3.18;62.21;99695.80;234677;1174;114698;-66
2021/04/04 19:21:59;;;;;;;8.83;5.93;;;;;;;3.13;62.32;99692.91;233045;1172;114825;-65
2021/04/04 19:27:04;;;;;;;10.10;6.73;;;;;;;3.08;62.91;99679.47;232435;1174;114559;-66
2021/04/04 19:32:07;;;;;;;10.48;6.33;;;;;;;3.10;62.62;99672.20;233756;1174;115445;-65
2021/04/04 19:37:12;;;;;;;12.28;6.63;;;;;;;3.10;61.87;99666.94;233268;1174;115561;-65
2021/04/04 19:42:19;;;;;;;17.57;7.90;;;;;;;3.08;63.60;99658.41;233397;1174;114987;-65
2021/04/04 19:47:22;;;;;;;13.08;7.30;;;;;;;3.02;63.63;99660.81;233638;1168;116031;-65
2021/04/04 19:52:26;;;;;;;13.30;8.07;;;;;;;2.98;64.57;99653.47;232402;1174;116157;-65
2021/04/04 19:57:29;;;;;;;11.35;5.63;;;;;;;2.86;63.95;99645.24;232628;1174;115807;-65
2021/04/04 20:02:33;;;;;;;9.53;7.33;;;;;;;2.82;63.69;99640.53;233257;1174;116003;-65
2021/04/04 20:07:37;;;;;;;12.60;7.65;;;;;;;2.73;64.15;99639.05;233493;1174;114480;-65
2021/04/04 20:12:41;;;;;;;13.60;8.50;;;;;;;2.67;65.50;99630.06;232568;1176;115888;-66
2021/04/04 20:17:45;;;;;;;12.45;7.78;;;;;;;2.60;65.17;99622.09;232710;1175;116517;-65
2021/04/04 20:22:50;;;;;;;10.40;7.33;;;;;;;2.55;65.10;99615.75;233311;1174;115271;-64
2021/04/04 20:27:53;;;;;;;13.53;8.23;;;;;;;2.56;65.39;99617.38;233498;1174;115189;-66
2021/04/04 20:32:59;;;;;;;12.10;8.73;;;;;;;2.58;66.26;99610.94;232915;1174;116103;-65
2021/04/04 20:38:03;;;;;;;16.60;9.60;;;;;;;2.57;66.05;99597.97;234159;1174;115421;-65
2021/04/04 20:43:08;;;;;;;16.77;9.37;;;;;;;2.55;65.92;99592.08;233537;1175;115868;-65
2021/04/04 20:48:11;;;;;;;13.03;8.10;;;;;;;2.49;65.83;99591.00;233342;1174;117604;-67
2021/04/04 20:53:16;;;;;;;15.73;7.40;;;;;;;2.43;66.60;99569.91;234715;1174;115278;-65
2021/04/04 20:58:19;;;;;;;14.55;8.00;;;;;;;2.40;66.24;99567.64;234581;1174;114616;-65
2021/04/04 21:03:23;;;;;;;16.30;9.15;;;;;;;2.45;66.70;99557.34;235094;1174;115678;-65
2021/04/04 21:08:27;;;;;;;12.60;7.87;;;;;;;2.46;65.36;99546.64;233922;1174;116152;-65
2021/04/04 21:13:32;;;;;;;17.00;9.13;;;;;;;2.45;66.14;99546.83;234209;1174;115745;-65
2021/04/04 21:18:38;;;;;;;12.80;7.10;;;;;;;2.39;65.82;99531.81;233859;1174;115823;-64
2021/04/04 21:23:41;;;;;;;10.25;6.93;;;;;;;2.38;65.52;99512.58;233067;1174;115156;-64
2021/04/04 21:28:44;;;;;;;13.37;7.77;;;;;;;2.31;66.50;99520.41;232822;1174;115336;-65
2021/04/04 21:33:49;;;;;;;12.73;6.73;;;;;;;2.26;66.46;99508.80;233349;1174;114376;-64
2021/04/04 21:38:53;;;;;;;17.78;7.78;;;;;;;2.22;66.64;99499.66;233087;1174;115483;-65
2021/04/04 21:43:56;;;;;;;13.70;8.53;;;;;;;2.17;67.05;99486.25;232703;1174;114744;-65
2021/04/04 21:49:03;;;;;;;14.33;7.45;;;;;;;2.11;66.82;99481.76;232791;1174;115338;-65
2021/04/04 21:54:07;;;;;;;15.43;8.17;;;;;;;2.07;67.12;99465.54;233168;1173;114890;-65
2021/04/04 21:59:11;;;;;;;12.85;6.78;;;;;;;2.00;66.72;99454.95;233331;1167;114850;-65
2021/04/04 22:04:15;;;;;;;11.03;7.30;;;;;;;1.98;67.68;99445.61;232780;1174;115371;-65
2021/04/04 22:09:22;;;;;;;17.60;7.75;;;;;;;1.96;68.25;99444.98;233302;1176;115301;-65
2021/04/04 22:14:26;;;;;;;12.95;9.00;;;;;;;1.96;68.10;99431.84;232667;1174;114562;-65
2021/04/04 22:19:30;;;;;;;12.83;7.88;;;;;;;1.97;66.13;99418.52;232987;1174;115430;-65
2021/04/04 22:24:39;;;;;;;15.28;8.55;;;;;;;1.96;66.71;99402.92;233365;1171;114542;-65
2021/04/04 22:29:43;;;;;;;13.98;8.45;;;;;;;1.93;66.93;99396.22;232747;1174;115033;-65
2021/04/04 22:34:51;;;;;;;14.90;8.58;;;;;;;1.89;67.33;99394.16;232548;1174;115166;-64
2021/04/04 22:39:56;;;;;;;12.40;7.63;;;;;;;1.83;67.63;99387.04;233935;1174;115189;-65
2021/04/04 22:44:59;;;;;;;11.00;8.05;;;;;;;1.81;68.14;99381.97;234276;1174;114659;-65
2021/04/04 22:50:08;;;;;;;12.70;7.50;;;;;;;1.80;67.29;99375.09;233188;1174;115565;-64
2021/04/04 22:55:14;;;;;;;22.05;9.58;;;;;;;1.79;68.00;99359.50;233537;1174;115139;-65
2021/04/04 23:00:22;;;;;;;15.50;9.10;;;;;;;1.75;67.11;99343.30;234086;1174;115984;-65
2021/04/04 23:05:27;;;;;;;16.50;9.53;;;;;;;1.72;68.26;99343.66;234987;1174;115332;-65
2021/04/04 23:10:31;;;;;;;11.70;8.63;;;;;;;1.73;67.64;99336.59;233099;1174;115475;-65
2021/04/04 23:15:38;;;;;;;17.73;9.68;;;;;;;1.72;67.68;99309.51;234915;1174;116632;-65
2021/04/04 23:20:43;;;;;;;15.60;8.55;;;;;;;1.71;67.73;99301.81;234614;1174;115703;-63
2021/04/04 23:25:47;;;;;;;11.43;9.30;;;;;;;1.69;68.45;99294.12;233619;1174;116335;-65
2021/04/04 23:30:52;;;;;;;12.43;8.20;;;;;;;1.63;68.94;99284.35;233865;1174;116779;-65
2021/04/04 23:35:58;;;;;;;19.40;9.70;;;;;;;1.65;67.97;99285.80;233043;1174;115532;-64